Time;durP1;ratioP1;P1;durP2;ratioP2;P2;SDS_P1;SDS_P2;PMS_P1;PMS_P2;Temp;Humidity;BMP_temperature;BMP_pressure;BME280_temperature;BME280_humidity;BME280_pressure;Samples;Min_cycle;Max_cycle;Signal;HPM_P1;HPM_P2
2021/06/19 00:02:09;;;;;;;5.07;4.68;;;;;;;;;;5010140;28;20116;-83
2021/06/19 00:04:35;;;;;;;4.45;4.03;;;;;;;;;;5019731;28;20018;-83
2021/06/19 00:07:03;;;;;;;5.00;4.60;;;;;;;;;;5020546;28;20028;-83
2021/06/19 00:09:29;;;;;;;4.68;4.22;;;;;;;;;;5012445;28;20033;-83
2021/06/19 00:11:55;;;;;;;5.35;4.82;;;;;;;;;;5021174;28;20025;-83
2021/06/19 00:14:22;;;;;;;6.00;5.50;;;;;;;;;;5022541;28;20108;-83
2021/06/19 00:16:48;;;;;;;5.60;4.95;;;;;;;;;;5026620;28;20037;-83
2021/06/19 00:19:14;;;;;;;4.88;4.47;;;;;;;;;;5026924;28;20033;-83
2021/06/19 00:21:42;;;;;;;5.43;4.93;;;;;;;;;;5020562;28;20030;-83
2021/06/19 00:24:12;;;;;;;6.30;5.03;;;;;;;;;;4980518;28;20033;-83
2021/06/19 00:26:38;;;;;;;6.07;5.28;;;;;;;;;;4997998;28;20140;-83
2021/06/19 00:29:04;;;;;;;5.70;5.20;;;;;;;;;;5003167;28;20101;-83
2021/06/19 00:31:30;;;;;;;6.18;5.57;;;;;;;;;;5001252;28;20049;-83
2021/06/19 00:33:57;;;;;;;6.05;5.45;;;;;;;;;;5015488;28;20184;-83
2021/06/19 00:36:23;;;;;;;5.60;5.10;;;;;;;;;;5019818;28;20030;-83
2021/06/19 00:38:49;;;;;;;5.72;5.22;;;;;;;;;;5013704;28;20057;-83
2021/06/19 00:41:15;;;;;;;7.50;6.75;;;;;;;;;;5021148;28;20387;-83
2021/06/19 00:43:41;;;;;;;7.07;6.47;;;;;;;;;;5033042;28;20041;-83
2021/06/19 00:46:07;;;;;;;8.35;6.63;;;;;;;;;;5029776;28;20030;-83
2021/06/19 00:48:33;;;;;;;7.30;6.60;;;;;;;;;;5019298;28;20018;-83
2021/06/19 00:50:59;;;;;;;6.55;5.95;;;;;;;;;;5017839;28;20484;-83
2021/06/19 00:53:25;;;;;;;7.55;6.43;;;;;;;;;;5013007;28;20550;-83
2021/06/19 00:55:51;;;;;;;6.50;5.90;;;;;;;;;;4999180;28;20501;-83
2021/06/19 00:58:17;;;;;;;6.38;5.78;;;;;;;;;;4998605;28;20031;-83
2021/06/19 01:00:43;;;;;;;6.93;6.30;;;;;;;;;;4998087;28;20034;-83
2021/06/19 01:03:10;;;;;;;6.70;6.10;;;;;;;;;;4984115;28;20022;-84
2021/06/19 01:05:36;;;;;;;7.75;6.70;;;;;;;;;;5019178;28;20118;-83
2021/06/19 01:08:02;;;;;;;7.80;6.60;;;;;;;;;;5001352;28;20324;-83
2021/06/19 01:10:29;;;;;;;9.20;6.43;;;;;;;;;;5011859;28;20037;-84
2021/06/19 01:12:55;;;;;;;7.78;6.47;;;;;;;;;;5020238;28;20022;-83
2021/06/19 01:15:21;;;;;;;7.93;7.22;;;;;;;;;;5004635;28;20036;-84
2021/06/19 01:17:47;;;;;;;7.55;6.68;;;;;;;;;;5033912;28;20034;-83
2021/06/19 01:20:15;;;;;;;8.07;7.32;;;;;;;;;;5037385;28;20022;-83
2021/06/19 01:22:45;;;;;;;9.57;6.75;;;;;;;;;;5037246;28;20026;-83
2021/06/19 01:25:16;;;;;;;7.50;6.75;;;;;;;;;;5036324;28;20034;-83
2021/06/19 01:27:42;;;;;;;6.35;5.85;;;;;;;;;;5035790;28;20041;-83
2021/06/19 01:30:09;;;;;;;6.90;6.30;;;;;;;;;;5034820;28;20048;-82
2021/06/19 01:32:36;;;;;;;7.95;5.78;;;;;;;;;;5018512;28;20026;-83
2021/06/19 01:35:02;;;;;;;7.18;6.03;;;;;;;;;;5010726;28;20030;-83
2021/06/19 01:37:28;;;;;;;6.75;5.90;;;;;;;;;;5005030;28;20022;-83
2021/06/19 01:40:04;;;;;;;5.90;5.40;;;;;;;;;;5012857;28;20033;-83
2021/06/19 01:42:30;;;;;;;5.50;5.10;;;;;;;;;;4998614;28;20396;-83
2021/06/19 01:44:56;;;;;;;6.03;5.28;;;;;;;;;;5006477;28;20556;-83
2021/06/19 01:47:22;;;;;;;6.10;5.57;;;;;;;;;;5006696;28;20039;-83
2021/06/19 01:49:48;;;;;;;6.63;5.93;;;;;;;;;;4999683;28;20483;-83
2021/06/19 01:52:14;;;;;;;7.75;6.43;;;;;;;;;;5029068;22;20056;-80
2021/06/19 01:54:40;;;;;;;6.25;5.65;;;;;;;;;;5057137;28;20113;-78
2021/06/19 01:57:07;;;;;;;6.35;5.75;;;;;;;;;;5021387;28;20025;-79
2021/06/19 01:59:33;;;;;;;6.70;6.10;;;;;;;;;;5023216;28;20017;-80
2021/06/19 02:02:00;;;;;;;6.32;5.63;;;;;;;;;;5038407;28;20473;-79
2021/06/19 02:04:26;;;;;;;7.75;6.53;;;;;;;;;;5037569;28;20317;-80
2021/06/19 02:06:53;;;;;;;8.55;6.15;;;;;;;;;;5058314;28;20511;-81
2021/06/19 02:09:19;;;;;;;7.38;6.07;;;;;;;;;;5058566;28;20028;-79
2021/06/19 02:11:45;;;;;;;6.95;6.35;;;;;;;;;;5060760;28;20044;-79
2021/06/19 02:14:16;;;;;;;7.30;6.43;;;;;;;;;;5058582;28;20021;-79
2021/06/19 02:16:42;;;;;;;10.25;6.68;;;;;;;;;;5057765;28;20025;-79
2021/06/19 02:19:09;;;;;;;7.18;6.00;;;;;;;;;;5040293;28;20113;-80
2021/06/19 02:21:35;;;;;;;6.65;5.95;;;;;;;;;;5044469;28;20040;-80
2021/06/19 02:24:01;;;;;;;6.93;6.22;;;;;;;;;;5050222;28;20100;-79
2021/06/19 02:26:30;;;;;;;7.35;6.65;;;;;;;;;;5056406;28;20076;-80
2021/06/19 02:28:56;;;;;;;8.00;6.40;;;;;;;;;;5058211;28;20024;-79
2021/06/19 02:31:23;;;;;;;6.13;5.63;;;;;;;;;;5058151;28;20033;-78
2021/06/19 02:33:49;;;;;;;6.90;6.30;;;;;;;;;;5039762;28;20033;-79
2021/06/19 02:36:16;;;;;;;7.72;7.03;;;;;;;;;;5057557;28;20021;-79
2021/06/19 02:38:45;;;;;;;6.68;6.00;;;;;;;;;;5059003;28;20036;-78
2021/06/19 02:41:13;;;;;;;7.15;6.45;;;;;;;;;;5058027;28;20084;-79
2021/06/19 02:43:39;;;;;;;6.63;6.00;;;;;;;;;;5057173;28;20047;-79
2021/06/19 02:46:06;;;;;;;7.00;6.25;;;;;;;;;;5057315;28;20067;-79
2021/06/19 02:48:36;;;;;;;7.30;6.60;;;;;;;;;;5057882;28;20033;-78
2021/06/19 02:51:04;;;;;;;7.53;6.82;;;;;;;;;;5058204;28;20036;-79
2021/06/19 02:53:30;;;;;;;6.90;6.35;;;;;;;;;;5031544;28;20041;-79
2021/06/19 02:55:56;;;;;;;8.50;6.53;;;;;;;;;;5040662;28;20033;-79
2021/06/19 02:58:30;;;;;;;6.85;6.25;;;;;;;;;;5058347;28;20033;-79
2021/06/19 03:00:56;;;;;;;7.18;6.55;;;;;;;;;;5068673;28;20032;-78
2021/06/19 03:03:23;;;;;;;6.63;6.03;;;;;;;;;;5075307;28;20021;-78
2021/06/19 03:05:49;;;;;;;6.57;5.95;;;;;;;;;;5060177;28;20482;-79
2021/06/19 03:08:15;;;;;;;8.77;6.75;;;;;;;;;;5057512;28;20020;-79
2021/06/19 03:10:41;;;;;;;7.97;7.25;;;;;;;;;;5059433;28;20033;-78
2021/06/19 03:13:07;;;;;;;7.45;6.75;;;;;;;;;;5059951;28;20021;-78
2021/06/19 03:15:33;;;;;;;8.10;7.30;;;;;;;;;;5059227;28;20057;-79
2021/06/19 03:18:00;;;;;;;7.40;6.75;;;;;;;;;;5058680;28;20077;-78
2021/06/19 03:20:26;;;;;;;8.02;6.97;;;;;;;;;;5060092;28;20469;-78
2021/06/19 03:22:54;;;;;;;7.38;6.68;;;;;;;;;;5058944;28;20048;-78
2021/06/19 03:25:21;;;;;;;6.47;5.88;;;;;;;;;;5050194;28;20036;-79
2021/06/19 03:27:48;;;;;;;7.13;6.47;;;;;;;;;;5056965;28;20105;-79
2021/06/19 03:30:15;;;;;;;6.00;5.50;;;;;;;;;;5059072;28;20052;-79
2021/06/19 03:32:41;;;;;;;6.72;6.13;;;;;;;;;;5059057;28;20025;-79
2021/06/19 03:35:08;;;;;;;6.20;5.70;;;;;;;;;;5058519;28;20025;-80
2021/06/19 03:37:34;;;;;;;7.35;6.65;;;;;;;;;;5058335;28;20369;-79
2021/06/19 03:40:00;;;;;;;6.40;5.80;;;;;;;;;;5041962;28;20147;-78
2021/06/19 03:42:28;;;;;;;6.28;5.78;;;;;;;;;;5057647;28;20059;-78
2021/06/19 03:44:54;;;;;;;6.47;5.95;;;;;;;;;;5058674;28;20028;-80
2021/06/19 03:47:20;;;;;;;7.18;6.47;;;;;;;;;;5058604;28;20051;-78
2021/06/19 03:49:46;;;;;;;8.27;7.18;;;;;;;;;;5059325;28;20055;-79
2021/06/19 03:52:12;;;;;;;7.18;6.47;;;;;;;;;;5040976;28;20089;-79
2021/06/19 03:54:38;;;;;;;6.60;6.00;;;;;;;;;;5066716;28;20024;-78
2021/06/19 03:57:05;;;;;;;6.93;6.35;;;;;;;;;;5074636;28;20037;-78
2021/06/19 03:59:31;;;;;;;7.20;6.60;;;;;;;;;;5074118;28;20044;-78
2021/06/19 04:01:57;;;;;;;7.82;6.25;;;;;;;;;;5074726;28;20024;-78
2021/06/19 04:04:23;;;;;;;10.10;6.50;;;;;;;;;;5061909;28;20043;-79
2021/06/19 04:06:49;;;;;;;7.43;6.68;;;;;;;;;;5037779;28;20032;-80
2021/06/19 04:09:15;;;;;;;6.78;6.28;;;;;;;;;;5055769;28;20021;-79
2021/06/19 04:11:42;;;;;;;8.38;6.95;;;;;;;;;;5056320;28;20043;-79
2021/06/19 04:14:08;;;;;;;11.77;7.82;;;;;;;;;;5056805;28;20021;-79
2021/06/19 04:16:34;;;;;;;10.48;8.10;;;;;;;;;;5057547;28;20043;-79
2021/06/19 04:19:00;;;;;;;8.65;7.70;;;;;;;;;;5056598;28;20032;-79
2021/06/19 04:21:26;;;;;;;8.43;7.57;;;;;;;;;;5056560;28;20040;-80
2021/06/19 04:23:52;;;;;;;8.50;7.70;;;;;;;;;;5050270;28;20419;-79
2021/06/19 04:26:20;;;;;;;8.90;7.35;;;;;;;;;;5037764;28;20028;-79
2021/06/19 04:28:46;;;;;;;7.75;6.90;;;;;;;;;;5056103;28;20027;-79
2021/06/19 04:31:12;;;;;;;13.57;7.55;;;;;;;;;;5038335;28;20029;-78
2021/06/19 04:33:39;;;;;;;7.50;6.75;;;;;;;;;;5057934;28;20029;-78
2021/06/19 04:36:05;;;;;;;8.55;7.40;;;;;;;;;;5056068;28;20432;-78
2021/06/19 04:38:31;;;;;;;9.18;6.47;;;;;;;;;;5056898;28;20021;-78
2021/06/19 04:41:04;;;;;;;8.70;6.57;;;;;;;;;;5057564;28;20078;-79
2021/06/19 04:43:39;;;;;;;9.35;6.82;;;;;;;;;;5057178;28;20079;-78
2021/06/19 04:46:05;;;;;;;7.90;6.38;;;;;;;;;;5037600;28;20025;-80
2021/06/19 04:48:31;;;;;;;11.10;7.18;;;;;;;;;;5055050;28;20396;-78
2021/06/19 04:50:57;;;;;;;7.22;6.53;;;;;;;;;;5041771;28;20029;-78
2021/06/19 04:53:24;;;;;;;7.05;6.35;;;;;;;;;;5054645;28;20040;-78
2021/06/19 04:55:50;;;;;;;8.30;6.90;;;;;;;;;;5051990;28;20044;-78
2021/06/19 04:58:16;;;;;;;8.73;6.57;;;;;;;;;;5038297;28;20036;-79
2021/06/19 05:00:42;;;;;;;8.10;6.18;;;;;;;;;;5057602;28;20032;-78
2021/06/19 05:03:08;;;;;;;7.00;6.30;;;;;;;;;;5038208;28;20025;-80
2021/06/19 05:05:35;;;;;;;8.90;6.22;;;;;;;;;;5055476;28;20025;-79
2021/06/19 05:08:01;;;;;;;8.93;6.57;;;;;;;;;;5055048;28;20025;-79
2021/06/19 05:10:28;;;;;;;8.70;6.35;;;;;;;;;;5055458;28;20021;-80
2021/06/19 05:12:54;;;;;;;6.35;5.75;;;;;;;;;;5055112;28;20158;-80
2021/06/19 05:15:26;;;;;;;9.75;6.57;;;;;;;;;;5057664;28;20029;-79
2021/06/19 05:17:53;;;;;;;8.70;5.90;;;;;;;;;;5054964;28;20025;-80
2021/06/19 05:20:19;;;;;;;10.18;6.55;;;;;;;;;;5037056;28;20052;-78
2021/06/19 05:22:46;;;;;;;12.63;7.40;;;;;;;;;;5031889;28;20505;-80
2021/06/19 05:25:13;;;;;;;7.60;5.18;;;;;;;;;;5044466;28;20032;-80
2021/06/19 05:27:39;;;;;;;8.98;5.50;;;;;;;;;;5055307;28;20100;-80
2021/06/19 05:30:06;;;;;;;8.20;5.50;;;;;;;;;;5036416;28;20025;-80
2021/06/19 05:32:32;;;;;;;9.57;6.10;;;;;;;;;;5055466;28;20028;-80
2021/06/19 05:34:58;;;;;;;9.13;5.20;;;;;;;;;;5055215;28;20144;-80
2021/06/19 05:37:24;;;;;;;6.63;5.53;;;;;;;;;;5055425;28;20436;-79
2021/06/19 05:39:50;;;;;;;8.13;5.85;;;;;;;;;;5055250;28;20029;-78
2021/06/19 05:42:16;;;;;;;12.27;6.10;;;;;;;;;;5054335;28;20033;-79
2021/06/19 05:44:42;;;;;;;13.13;6.32;;;;;;;;;;5039776;28;20072;-79
2021/06/19 05:47:08;;;;;;;8.43;5.65;;;;;;;;;;5054813;28;20047;-79
2021/06/19 05:49:34;;;;;;;7.90;5.28;;;;;;;;;;5056262;28;20029;-79
2021/06/19 05:52:00;;;;;;;8.38;5.90;;;;;;;;;;5057795;28;20103;-79
2021/06/19 05:54:29;;;;;;;8.85;6.07;;;;;;;;;;5051448;28;20359;-79
2021/06/19 05:56:55;;;;;;;12.43;6.05;;;;;;;;;;5041312;28;20029;-78
2021/06/19 05:59:21;;;;;;;10.80;6.13;;;;;;;;;;5050792;28;20017;-79
2021/06/19 06:01:47;;;;;;;11.02;6.38;;;;;;;;;;5067872;28;20041;-79
2021/06/19 06:04:13;;;;;;;8.20;6.63;;;;;;;;;;5057180;28;20021;-80
2021/06/19 06:06:39;;;;;;;5.70;5.20;;;;;;;;;;5042015;28;20032;-80
2021/06/19 06:09:06;;;;;;;7.60;6.15;;;;;;;;;;5067704;28;20028;-80
2021/06/19 06:11:32;;;;;;;7.75;6.10;;;;;;;;;;5058123;28;20029;-80
2021/06/19 06:13:58;;;;;;;9.73;6.07;;;;;;;;;;5040188;28;20039;-79
2021/06/19 06:16:24;;;;;;;7.40;5.50;;;;;;;;;;5042872;28;20695;-79
2021/06/19 06:18:50;;;;;;;10.25;6.47;;;;;;;;;;5058229;28;20029;-79
2021/06/19 06:21:16;;;;;;;6.03;5.45;;;;;;;;;;5041765;28;20021;-78
2021/06/19 06:23:42;;;;;;;10.48;5.85;;;;;;;;;;5053622;28;20105;-78
2021/06/19 06:26:08;;;;;;;10.98;5.45;;;;;;;;;;5040926;28;20025;-80
2021/06/19 06:28:37;;;;;;;8.80;5.13;;;;;;;;;;5041501;28;20021;-79
2021/06/19 06:31:04;;;;;;;7.88;5.30;;;;;;;;;;5043480;28;20120;-80
2021/06/19 06:33:30;;;;;;;6.45;4.90;;;;;;;;;;5058911;28;20032;-79
2021/06/19 06:35:56;;;;;;;7.30;4.78;;;;;;;;;;5040952;28;20035;-80
2021/06/19 06:38:22;;;;;;;7.35;5.45;;;;;;;;;;5040525;28;20025;-80
2021/06/19 06:40:51;;;;;;;10.43;4.97;;;;;;;;;;5041121;28;20029;-79
2021/06/19 06:43:17;;;;;;;10.25;5.63;;;;;;;;;;5040184;28;20078;-79
2021/06/19 06:45:44;;;;;;;7.22;5.68;;;;;;;;;;5041387;28;20435;-79
2021/06/19 06:48:10;;;;;;;6.93;5.00;;;;;;;;;;5059109;28;20433;-79
2021/06/19 06:50:36;;;;;;;11.98;5.20;;;;;;;;;;5058411;28;20051;-80
2021/06/19 06:53:02;;;;;;;8.88;5.00;;;;;;;;;;5058280;28;20088;-79
2021/06/19 06:55:28;;;;;;;12.75;5.32;;;;;;;;;;5046382;28;20029;-80
2021/06/19 06:57:54;;;;;;;7.43;5.72;;;;;;;;;;5057778;28;20397;-80
2021/06/19 07:00:20;;;;;;;9.23;5.38;;;;;;;;;;5057543;28;20025;-80
2021/06/19 07:02:46;;;;;;;11.73;5.28;;;;;;;;;;5041414;28;20052;-80
2021/06/19 07:05:12;;;;;;;11.75;5.25;;;;;;;;;;5057453;28;20496;-80
2021/06/19 07:07:40;;;;;;;8.75;5.88;;;;;;;;;;5057827;28;20052;-80
2021/06/19 07:10:07;;;;;;;8.50;5.65;;;;;;;;;;5039723;28;20113;-80
2021/06/19 07:12:33;;;;;;;8.43;5.95;;;;;;;;;;5059010;28;20048;-80
2021/06/19 07:14:59;;;;;;;8.25;5.15;;;;;;;;;;5057462;28;20056;-80
2021/06/19 07:17:25;;;;;;;5.05;4.38;;;;;;;;;;5039684;28;20024;-80
2021/06/19 07:19:51;;;;;;;7.35;5.22;;;;;;;;;;5057491;28;20025;-80
2021/06/19 07:22:18;;;;;;;8.88;5.00;;;;;;;;;;5040513;28;20027;-78
2021/06/19 07:24:44;;;;;;;6.88;5.65;;;;;;;;;;5045300;28;20049;-79
2021/06/19 07:27:10;;;;;;;8.90;5.65;;;;;;;;;;5044362;28;20021;-80
2021/06/19 07:29:36;;;;;;;9.23;6.07;;;;;;;;;;5056965;28;20060;-80
2021/06/19 07:32:03;;;;;;;13.63;6.10;;;;;;;;;;5059471;28;20021;-79
2021/06/19 07:34:29;;;;;;;7.60;4.97;;;;;;;;;;5056877;28;20099;-80
2021/06/19 07:36:55;;;;;;;6.30;5.18;;;;;;;;;;5056535;28;20111;-79
2021/06/19 07:39:21;;;;;;;9.18;5.43;;;;;;;;;;5037233;28;20033;-80
2021/06/19 07:41:48;;;;;;;13.75;5.50;;;;;;;;;;5037437;28;20083;-79
2021/06/19 07:44:14;;;;;;;8.18;5.47;;;;;;;;;;5036701;28;20466;-81
2021/06/19 07:46:41;;;;;;;7.07;5.13;;;;;;;;;;5037153;28;20017;-80
2021/06/19 07:49:07;;;;;;;5.38;4.88;;;;;;;;;;5039106;28;20049;-80
2021/06/19 07:54:04;;;;;;;6.55;5.43;;;;;;;;;;5029208;28;20041;-81
2021/06/19 07:56:31;;;;;;;8.38;4.78;;;;;;;;;;5025177;28;20025;-81
2021/06/19 07:58:57;;;;;;;13.20;5.03;;;;;;;;;;5051710;28;20454;-81
2021/06/19 08:01:23;;;;;;;8.02;5.68;;;;;;;;;;5040861;28;20061;-82
2021/06/19 08:03:49;;;;;;;8.50;5.30;;;;;;;;;;5039846;28;20018;-82
2021/06/19 08:06:15;;;;;;;7.78;5.47;;;;;;;;;;5021224;28;20029;-82
2021/06/19 08:08:41;;;;;;;12.07;5.90;;;;;;;;;;5040907;28;20027;-82
2021/06/19 08:11:07;;;;;;;6.20;4.93;;;;;;;;;;5039058;28;20036;-82
2021/06/19 08:13:33;;;;;;;11.00;6.20;;;;;;;;;;5038871;28;20163;-84
2021/06/19 08:16:01;;;;;;;8.20;5.78;;;;;;;;;;5039964;28;20096;-83
2021/06/19 08:18:27;;;;;;;11.40;6.53;;;;;;;;;;5039351;28;20018;-82
2021/06/19 08:20:53;;;;;;;8.75;5.68;;;;;;;;;;5042324;28;20025;-82
2021/06/19 08:23:19;;;;;;;7.85;6.07;;;;;;;;;;5041150;28;20025;-84
2021/06/19 08:25:45;;;;;;;8.32;5.15;;;;;;;;;;5010270;28;20029;-82
2021/06/19 08:28:11;;;;;;;6.72;5.10;;;;;;;;;;5045029;28;20136;-82
2021/06/19 08:30:37;;;;;;;10.15;5.50;;;;;;;;;;5047324;28;20022;-82
2021/06/19 08:33:03;;;;;;;7.20;5.70;;;;;;;;;;5051363;28;20025;-82
2021/06/19 08:35:29;;;;;;;8.48;5.72;;;;;;;;;;5046112;28;20034;-82
2021/06/19 08:37:55;;;;;;;9.68;5.78;;;;;;;;;;5022685;28;20503;-83
2021/06/19 08:40:21;;;;;;;13.60;5.65;;;;;;;;;;5040419;28;20021;-82
2021/06/19 08:42:47;;;;;;;13.30;5.40;;;;;;;;;;5042113;28;20128;-82
2021/06/19 08:45:13;;;;;;;15.50;5.53;;;;;;;;;;5023934;28;20025;-82
2021/06/19 08:47:40;;;;;;;7.75;6.05;;;;;;;;;;5023930;28;20384;-83
2021/06/19 08:50:10;;;;;;;7.57;5.32;;;;;;;;;;5042867;28;20088;-82
2021/06/19 08:52:36;;;;;;;9.35;5.25;;;;;;;;;;5042109;28;20033;-82
2021/06/19 08:55:08;;;;;;;7.93;5.40;;;;;;;;;;5028748;28;20029;-82
2021/06/19 08:57:34;;;;;;;10.32;5.22;;;;;;;;;;5027325;28;20040;-82
2021/06/19 09:00:00;;;;;;;8.38;5.57;;;;;;;;;;5044067;28;20032;-82
2021/06/19 09:02:27;;;;;;;10.77;5.50;;;;;;;;;;5044731;28;20068;-82
2021/06/19 09:04:53;;;;;;;8.18;4.75;;;;;;;;;;5043583;28;20076;-82
2021/06/19 09:07:38;;;;;;;11.15;5.72;;;;;;;;;;5043421;28;20021;-82
2021/06/19 09:10:16;;;;;;;11.25;5.82;;;;;;;;;;5046519;28;20017;-81
2021/06/19 09:12:55;;;;;;;10.32;6.00;;;;;;;;;;5043967;28;20033;-82
2021/06/19 09:15:21;;;;;;;14.65;6.35;;;;;;;;;;5049911;28;20013;-82
2021/06/19 09:18:05;;;;;;;9.75;5.50;;;;;;;;;;5050543;28;20064;-81
2021/06/19 09:20:33;;;;;;;9.43;6.10;;;;;;;;;;5036439;28;20091;-82
2021/06/19 09:23:03;;;;;;;11.20;5.05;;;;;;;;;;5037768;28;20099;-82
2021/06/19 09:25:29;;;;;;;8.90;6.07;;;;;;;;;;5031806;28;20032;-82
2021/06/19 09:27:57;;;;;;;11.23;5.45;;;;;;;;;;5020890;28;20281;-81
2021/06/19 09:30:23;;;;;;;8.23;5.10;;;;;;;;;;5031715;28;20095;-81
2021/06/19 09:32:51;;;;;;;11.55;6.25;;;;;;;;;;5038499;28;20560;-82
2021/06/19 09:35:24;;;;;;;9.73;4.68;;;;;;;;;;5041618;28;20030;-82
2021/06/19 09:37:51;;;;;;;11.20;5.00;;;;;;;;;;5041413;28;20013;-81
2021/06/19 09:40:20;;;;;;;12.15;6.20;;;;;;;;;;5042749;28;20018;-81
2021/06/19 09:42:47;;;;;;;10.13;5.30;;;;;;;;;;5041829;28;20022;-82
2021/06/19 09:45:25;;;;;;;8.35;5.07;;;;;;;;;;5042921;28;20030;-83
2021/06/19 09:47:52;;;;;;;9.50;4.72;;;;;;;;;;5025578;28;20108;-82
2021/06/19 09:50:19;;;;;;;9.07;5.05;;;;;;;;;;5045892;28;20028;-83
2021/06/19 09:52:45;;;;;;;6.03;4.80;;;;;;;;;;5045830;28;20041;-82
2021/06/19 09:55:12;;;;;;;9.85;5.93;;;;;;;;;;5037650;28;20026;-83
2021/06/19 09:57:39;;;;;;;11.88;5.43;;;;;;;;;;5031895;28;20371;-82
2021/06/19 10:00:07;;;;;;;10.43;5.22;;;;;;;;;;5046307;28;20083;-81
2021/06/19 10:02:33;;;;;;;10.35;5.20;;;;;;;;;;5046276;28;20072;-82
2021/06/19 10:04:59;;;;;;;7.03;5.18;;;;;;;;;;5045772;28;20044;-82
2021/06/19 10:07:26;;;;;;;10.02;5.35;;;;;;;;;;5046228;28;20128;-82
2021/06/19 10:09:53;;;;;;;20.33;6.18;;;;;;;;;;5028376;28;20014;-82
2021/06/19 10:12:23;;;;;;;8.82;5.35;;;;;;;;;;5026171;28;20092;-83
2021/06/19 10:14:50;;;;;;;5.43;4.82;;;;;;;;;;5045947;28;20036;-82
2021/06/19 10:17:17;;;;;;;9.45;5.35;;;;;;;;;;5027290;28;20029;-82
2021/06/19 10:19:44;;;;;;;9.05;5.53;;;;;;;;;;5045172;28;20022;-82
2021/06/19 10:22:10;;;;;;;6.82;4.63;;;;;;;;;;5045591;28;20028;-81
2021/06/19 10:24:37;;;;;;;10.27;5.50;;;;;;;;;;5032517;28;20018;-82
2021/06/19 10:27:04;;;;;;;6.65;5.00;;;;;;;;;;5024750;28;20033;-82
2021/06/19 10:29:30;;;;;;;5.45;4.35;;;;;;;;;;5042440;28;20074;-82
2021/06/19 10:31:57;;;;;;;9.35;5.35;;;;;;;;;;5046353;28;20029;-82
2021/06/19 10:34:30;;;;;;;8.13;5.03;;;;;;;;;;5048757;28;20052;-82
2021/06/19 10:36:57;;;;;;;6.72;5.50;;;;;;;;;;5050582;28;20085;-82
2021/06/19 10:39:33;;;;;;;5.80;4.85;;;;;;;;;;5048386;28;20482;-82
2021/06/19 10:42:00;;;;;;;13.48;5.13;;;;;;;;;;5047852;28;20064;-82
2021/06/19 10:44:44;;;;;;;11.50;5.47;;;;;;;;;;5048484;28;20109;-82
2021/06/19 10:47:10;;;;;;;8.80;5.70;;;;;;;;;;5049506;28;20009;-82
2021/06/19 10:49:37;;;;;;;5.43;4.82;;;;;;;;;;5056364;28;20025;-82
2021/06/19 10:52:21;;;;;;;7.50;5.00;;;;;;;;;;5047484;28;20417;-83
2021/06/19 10:55:06;;;;;;;6.40;5.03;;;;;;;;;;5034989;28;20029;-82
2021/06/19 10:57:44;;;;;;;5.28;4.78;;;;;;;;;;5028029;28;20029;-82
2021/06/19 11:00:33;;;;;;;8.52;5.47;;;;;;;;;;5041449;28;20029;-82
2021/06/19 11:03:01;;;;;;;6.90;5.05;;;;;;;;;;5018191;28;20060;-82
2021/06/19 11:05:43;;;;;;;6.88;5.05;;;;;;;;;;5048147;28;20029;-82
2021/06/19 11:08:09;;;;;;;6.70;4.90;;;;;;;;;;5050738;28;20038;-82
2021/06/19 11:10:48;;;;;;;6.82;5.40;;;;;;;;;;5046764;28;20029;-83
2021/06/19 11:13:29;;;;;;;10.95;5.68;;;;;;;;;;5045437;28;20021;-81
2021/06/19 11:15:59;;;;;;;9.35;5.85;;;;;;;;;;5027722;28;20478;-83
2021/06/19 11:18:44;;;;;;;7.95;5.43;;;;;;;;;;5045003;28;20033;-81
2021/06/19 11:21:11;;;;;;;8.13;5.50;;;;;;;;;;5043831;28;20083;-82
2021/06/19 11:23:56;;;;;;;5.65;5.15;;;;;;;;;;5040921;28;20079;-82
2021/06/19 11:26:41;;;;;;;9.60;5.50;;;;;;;;;;5044190;28;20097;-82
2021/06/19 11:29:25;;;;;;;9.65;6.70;;;;;;;;;;5056673;28;20030;-81
2021/06/19 11:31:51;;;;;;;7.07;5.28;;;;;;;;;;5054706;28;20076;-81
2021/06/19 11:34:44;;;;;;;9.13;5.88;;;;;;;;;;5045532;28;20033;-82
2021/06/19 11:37:10;;;;;;;11.88;5.28;;;;;;;;;;5039055;28;20117;-81
2021/06/19 11:39:36;;;;;;;8.38;5.72;;;;;;;;;;5026228;28;20028;-82
2021/06/19 11:42:02;;;;;;;7.55;5.53;;;;;;;;;;5043502;28;20042;-81
2021/06/19 11:44:32;;;;;;;8.70;5.75;;;;;;;;;;5044174;28;20025;-82
2021/06/19 11:46:58;;;;;;;7.97;5.43;;;;;;;;;;5026382;28;20478;-82
2021/06/19 11:49:28;;;;;;;7.55;5.50;;;;;;;;;;5044565;28;20481;-82
2021/06/19 11:51:55;;;;;;;6.37;5.77;;;;;;;;;;5026335;28;20029;-82
2021/06/19 11:54:21;;;;;;;5.90;5.45;;;;;;;;;;5043571;28;20037;-82
2021/06/19 11:56:47;;;;;;;7.85;5.03;;;;;;;;;;5054217;28;20030;-82
2021/06/19 11:59:14;;;;;;;12.40;6.03;;;;;;;;;;5026119;28;20033;-82
2021/06/19 12:01:41;;;;;;;7.55;5.93;;;;;;;;;;5046159;28;20168;-83
2021/06/19 12:04:10;;;;;;;10.65;5.60;;;;;;;;;;5027538;28;20018;-82
2021/06/19 12:06:40;;;;;;;8.20;6.07;;;;;;;;;;5043432;28;20017;-82
2021/06/19 12:09:07;;;;;;;8.70;5.70;;;;;;;;;;5041613;28;20022;-82
2021/06/19 12:11:34;;;;;;;7.63;5.28;;;;;;;;;;5041444;28;20163;-82
2021/06/19 12:14:01;;;;;;;6.85;5.38;;;;;;;;;;5043328;28;20263;-82
2021/06/19 12:16:33;;;;;;;15.35;6.95;;;;;;;;;;5041998;28;20103;-82
2021/06/19 12:19:00;;;;;;;10.15;6.75;;;;;;;;;;5042101;28;20513;-82
2021/06/19 12:21:34;;;;;;;6.43;5.78;;;;;;;;;;5026549;28;20036;-82
2021/06/19 12:24:01;;;;;;;8.90;5.82;;;;;;;;;;5033607;28;20429;-83
2021/06/19 12:26:27;;;;;;;10.00;6.13;;;;;;;;;;5041787;28;20025;-82
2021/06/19 12:28:54;;;;;;;6.90;5.53;;;;;;;;;;5043418;28;20013;-82
2021/06/19 12:31:25;;;;;;;8.55;5.72;;;;;;;;;;5025171;28;20105;-82
2021/06/19 12:33:51;;;;;;;;;;;;;;;;;;5024644;28;20116;-82
2021/06/19 12:36:23;;;;;;;6.53;5.35;;;;;;;;;;5024066;28;20281;-82
2021/06/19 12:38:50;;;;;;;8.70;5.97;;;;;;;;;;5042951;28;20222;-83
2021/06/19 12:41:16;;;;;;;8.77;5.82;;;;;;;;;;5005782;28;20052;-83
2021/06/19 12:43:49;;;;;;;10.80;6.07;;;;;;;;;;5024184;28;20084;-82
2021/06/19 12:46:16;;;;;;;10.23;5.88;;;;;;;;;;5023308;28;20018;-82
2021/06/19 12:48:42;;;;;;;5.90;5.13;;;;;;;;;;5023489;28;20033;-82
2021/06/19 12:51:20;;;;;;;5.97;5.45;;;;;;;;;;5040357;28;20036;-82
2021/06/19 12:53:46;;;;;;;6.90;6.32;;;;;;;;;;5038845;28;20030;-82
2021/06/19 12:56:12;;;;;;;8.48;6.15;;;;;;;;;;5042449;28;20470;-83
2021/06/19 12:58:39;;;;;;;8.60;5.70;;;;;;;;;;5025534;28;20064;-82
2021/06/19 13:01:19;;;;;;;6.13;5.63;;;;;;;;;;5039302;28;20060;-82
2021/06/19 13:03:48;;;;;;;9.03;6.57;;;;;;;;;;5022840;28;20018;-83
2021/06/19 13:06:26;;;;;;;11.23;5.20;;;;;;;;;;5042935;28;20014;-82
2021/06/19 13:08:56;;;;;;;6.53;5.93;;;;;;;;;;5041516;28;20494;-82
2021/06/19 13:11:26;;;;;;;8.05;5.90;;;;;;;;;;5044734;28;20091;-82
2021/06/19 13:13:52;;;;;;;8.68;5.50;;;;;;;;;;5047145;28;20017;-82
2021/06/19 13:16:28;;;;;;;11.40;6.30;;;;;;;;;;5041515;28;20177;-81
2021/06/19 13:19:14;;;;;;;14.90;5.70;;;;;;;;;;5024872;28;20352;-82
2021/06/19 13:21:41;;;;;;;10.73;5.78;;;;;;;;;;5042256;28;20033;-82
2021/06/19 13:24:18;;;;;;;8.10;6.10;;;;;;;;;;5036255;28;20026;-81
2021/06/19 13:26:44;;;;;;;6.45;5.82;;;;;;;;;;5043790;28;20043;-82
2021/06/19 13:29:10;;;;;;;8.88;6.43;;;;;;;;;;5028780;28;20088;-82
2021/06/19 13:31:40;;;;;;;9.18;5.88;;;;;;;;;;5046989;28;20060;-82
2021/06/19 13:34:08;;;;;;;6.38;5.78;;;;;;;;;;5048226;28;20021;-81
2021/06/19 13:36:44;;;;;;;7.72;6.20;;;;;;;;;;5055760;28;20013;-81
2021/06/19 13:39:10;;;;;;;6.55;5.93;;;;;;;;;;5056937;28;20022;-81
2021/06/19 13:41:36;;;;;;;6.53;5.70;;;;;;;;;;5026783;28;20033;-81
2021/06/19 13:44:02;;;;;;;6.88;5.85;;;;;;;;;;5026162;28;20385;-82
2021/06/19 13:46:28;;;;;;;7.35;5.35;;;;;;;;;;5044756;28;20021;-82
2021/06/19 13:48:55;;;;;;;7.80;6.03;;;;;;;;;;5044083;28;20026;-82
2021/06/19 13:51:21;;;;;;;7.30;5.97;;;;;;;;;;5043535;28;20029;-81
2021/06/19 13:53:48;;;;;;;5.85;5.38;;;;;;;;;;5041381;28;20048;-80
2021/06/19 13:56:15;;;;;;;7.85;5.63;;;;;;;;;;5024028;28;20032;-83
2021/06/19 13:58:41;;;;;;;9.07;5.82;;;;;;;;;;5023765;28;20034;-83
2021/06/19 14:01:10;;;;;;;7.50;5.82;;;;;;;;;;5030492;28;20037;-82
2021/06/19 14:03:37;;;;;;;7.43;5.32;;;;;;;;;;5045474;28;20018;-82
2021/06/19 14:06:06;;;;;;;6.00;5.47;;;;;;;;;;5046970;28;20425;-82
2021/06/19 14:08:32;;;;;;;8.60;6.05;;;;;;;;;;5046438;28;20119;-83
2021/06/19 14:10:58;;;;;;;7.63;5.57;;;;;;;;;;5042391;28;20051;-83
2021/06/19 14:13:24;;;;;;;5.65;5.15;;;;;;;;;;5045516;28;20033;-82
2021/06/19 14:15:50;;;;;;;6.05;5.50;;;;;;;;;;5046401;28;20056;-82
2021/06/19 14:18:16;;;;;;;5.78;5.18;;;;;;;;;;5046459;28;20026;-82
2021/06/19 14:20:42;;;;;;;10.00;5.93;;;;;;;;;;5046976;28;20049;-82
2021/06/19 14:23:08;;;;;;;5.70;5.00;;;;;;;;;;5043564;28;20025;-83
2021/06/19 14:25:34;;;;;;;8.55;5.38;;;;;;;;;;5040847;28;20045;-82
2021/06/19 14:28:03;;;;;;;6.60;5.57;;;;;;;;;;5027603;28;20024;-81
2021/06/19 14:30:29;;;;;;;6.05;5.43;;;;;;;;;;5039262;28;20228;-81
2021/06/19 14:32:55;;;;;;;6.20;5.25;;;;;;;;;;5033100;28;20025;-81
2021/06/19 14:35:22;;;;;;;8.27;5.50;;;;;;;;;;5034023;28;20017;-81
2021/06/19 14:37:49;;;;;;;6.05;5.30;;;;;;;;;;5035467;28;20033;-80
2021/06/19 14:40:15;;;;;;;6.72;5.80;;;;;;;;;;5033858;28;20018;-81
2021/06/19 14:42:41;;;;;;;10.95;6.20;;;;;;;;;;5024749;28;20034;-81
2021/06/19 14:45:08;;;;;;;6.13;5.53;;;;;;;;;;5022441;28;20082;-82
2021/06/19 14:47:35;;;;;;;5.45;4.90;;;;;;;;;;5040426;28;20018;-82